createdAt,value
2022-12-29T00:01:08.229Z,96560.94
2022-12-29T00:03:34.961Z,96565.38
2022-12-29T00:06:03.053Z,96571.44
2022-12-29T00:08:40.606Z,96564.31
2022-12-29T00:11:13.864Z,96559.41
2022-12-29T00:13:59.113Z,96567.59
2022-12-29T00:16:25.769Z,96556.00
2022-12-29T00:18:52.790Z,96558.59
2022-12-29T00:21:39.851Z,96527.34
2022-12-29T00:24:26.055Z,96558.34
2022-12-29T00:27:17.353Z,96551.22
2022-12-29T00:30:03.363Z,96545.56
2022-12-29T00:32:48.562Z,96549.28
2022-12-29T00:35:23.573Z,96547.91
2022-12-29T00:38:08.753Z,96546.50
2022-12-29T00:40:54.185Z,96547.91
2022-12-29T00:43:40.104Z,96546.88
2022-12-29T00:46:06.716Z,96549.59
2022-12-29T00:48:52.349Z,96546.50
2022-12-29T00:51:18.883Z,96552.13
2022-12-29T00:53:45.414Z,96545.22
2022-12-29T00:56:11.946Z,96554.22
2022-12-29T00:58:38.483Z,96552.44
2022-12-29T01:01:09.764Z,96541.06
2022-12-29T01:03:37.451Z,96539.16
2022-12-29T01:06:06.139Z,96544.72
2022-12-29T01:08:32.837Z,96546.91
2022-12-29T01:11:11.256Z,96537.69
2022-12-29T01:13:39.240Z,96538.59
2022-12-29T01:16:07.538Z,96539.19
2022-12-29T01:18:35.070Z,96532.94
2022-12-29T01:21:04.617Z,96519.69
2022-12-29T01:23:31.289Z,96533.47
2022-12-29T01:25:58.103Z,96538.50
2022-12-29T01:28:26.273Z,96538.47
2022-12-29T01:30:53.084Z,96538.53
2022-12-29T01:33:19.627Z,96540.50
2022-12-29T01:35:46.153Z,96534.41
2022-12-29T01:38:12.832Z,96542.06
2022-12-29T01:40:46.855Z,96536.34
2022-12-29T01:43:17.956Z,96531.88
2022-12-29T01:45:51.416Z,96522.94
2022-12-29T01:48:19.191Z,96532.59
2022-12-29T01:50:54.107Z,96541.06
2022-12-29T01:53:30.019Z,96547.44
2022-12-29T01:56:02.455Z,96539.75
2022-12-29T01:58:37.355Z,96524.38
2022-12-29T02:01:04.141Z,96534.81
2022-12-29T02:03:33.541Z,96533.84
2022-12-29T02:06:05.469Z,96521.97
2022-12-29T02:08:32.083Z,96517.03
2022-12-29T02:11:01.168Z,96518.88
2022-12-29T02:13:28.917Z,96509.28
2022-12-29T02:16:08.871Z,96497.34
2022-12-29T02:19:07.519Z,96510.25
2022-12-29T02:21:57.569Z,96512.41
2022-12-29T02:24:45.579Z,96502.84
2022-12-29T02:27:35.199Z,96496.94
2022-12-29T02:30:18.608Z,96502.34
2022-12-29T02:33:11.615Z,96494.59
2022-12-29T02:35:57.088Z,96495.22
2022-12-29T02:38:51.003Z,96491.47
2022-12-29T02:41:46.637Z,96484.75
2022-12-29T02:44:35.280Z,96487.34
2022-12-29T02:47:12.314Z,96473.22
2022-12-29T02:49:55.112Z,96468.13
2022-12-29T02:52:28.770Z,96466.50
2022-12-29T02:54:56.399Z,96458.19
2022-12-29T02:57:22.879Z,96450.81
2022-12-29T02:59:58.894Z,96457.97
2022-12-29T03:02:36.610Z,96435.44
2022-12-29T03:05:26.953Z,96441.06
2022-12-29T03:08:14.735Z,96447.69
2022-12-29T03:11:04.429Z,96444.28
2022-12-29T03:14:08.299Z,96443.53
2022-12-29T03:16:50.091Z,96445.09
2022-12-29T03:19:25.980Z,96440.34
2022-12-29T03:22:16.485Z,96433.22
2022-12-29T03:24:55.218Z,96431.41
2022-12-29T03:27:28.233Z,96420.66
2022-12-29T03:30:01.345Z,96433.63
2022-12-29T03:32:43.325Z,96422.03
2022-12-29T03:35:14.264Z,96420.41
2022-12-29T03:37:50.483Z,96434.81
2022-12-29T03:40:17.677Z,96427.84
2022-12-29T03:42:45.228Z,96420.50
2022-12-29T03:45:12.104Z,96415.66
2022-12-29T03:47:38.977Z,96428.06
2022-12-29T03:50:07.120Z,96434.59
2022-12-29T03:52:37.065Z,96432.44
2022-12-29T03:55:04.766Z,96426.09
2022-12-29T03:57:31.351Z,96428.88
2022-12-29T04:00:01.825Z,96424.28
2022-12-29T04:02:30.841Z,96415.09
2022-12-29T04:04:57.576Z,96410.56
2022-12-29T04:07:24.113Z,96413.94
2022-12-29T04:09:53.066Z,96420.13
2022-12-29T04:12:23.152Z,96421.09
2022-12-29T04:14:49.760Z,96418.94
2022-12-29T04:17:16.262Z,96414.97
2022-12-29T04:19:45.322Z,96405.41
2022-12-29T04:22:12.732Z,96414.56
2022-12-29T04:24:39.931Z,96408.53
2022-12-29T04:27:06.606Z,96418.53
2022-12-29T04:29:53.160Z,96419.53
2022-12-29T04:32:31.932Z,96414.56
2022-12-29T04:34:58.543Z,96414.94
2022-12-29T04:37:25.231Z,96413.94
2022-12-29T04:39:52.229Z,96384.19
2022-12-29T04:42:18.828Z,96402.00
2022-12-29T04:44:46.178Z,96406.97
2022-12-29T04:47:18.686Z,96402.97
2022-12-29T04:50:11.160Z,96404.22
2022-12-29T04:52:43.782Z,96415.53
2022-12-29T04:55:13.066Z,96404.59
2022-12-29T04:57:41.154Z,96404.22
2022-12-29T05:00:10.201Z,96405.03
2022-12-29T05:02:38.506Z,96387.66
2022-12-29T05:05:06.417Z,96410.41
2022-12-29T05:07:35.820Z,96407.81
2022-12-29T05:10:02.551Z,96407.66
2022-12-29T05:12:31.852Z,96392.44
2022-12-29T05:15:00.535Z,96414.03
2022-12-29T05:17:27.433Z,96400.22
2022-12-29T05:19:54.090Z,96417.00
2022-12-29T05:22:21.254Z,96406.25
2022-12-29T05:24:49.017Z,96411.81
2022-12-29T05:27:16.221Z,96412.41
2022-12-29T05:29:58.235Z,96413.84
2022-12-29T05:32:25.298Z,96394.88
2022-12-29T05:34:53.497Z,96413.47
2022-12-29T05:37:20.254Z,96412.25
2022-12-29T05:39:46.887Z,96413.25
2022-12-29T05:42:13.984Z,96416.22
2022-12-29T05:45:09.464Z,96421.44
2022-12-29T05:47:54.391Z,96423.03
2022-12-29T05:50:27.807Z,96426.81
2022-12-29T05:53:11.869Z,96432.16
2022-12-29T05:55:42.183Z,96415.00
2022-12-29T05:58:13.302Z,96425.03
2022-12-29T06:00:41.354Z,96425.03
2022-12-29T06:03:10.123Z,96435.94
2022-12-29T06:05:37.156Z,96429.19
2022-12-29T06:08:03.782Z,96421.53
2022-12-29T06:10:30.613Z,96417.72
2022-12-29T06:13:06.458Z,96424.50
2022-12-29T06:15:36.433Z,96431.69
2022-12-29T06:18:05.520Z,96420.88
2022-12-29T06:20:32.155Z,96429.84
2022-12-29T06:22:58.759Z,96438.47
2022-12-29T06:25:25.291Z,96437.28
2022-12-29T06:27:51.869Z,96435.66
2022-12-29T06:30:18.449Z,96427.84
2022-12-29T06:32:45.723Z,96434.00
2022-12-29T06:35:12.964Z,96442.41
2022-12-29T06:37:49.583Z,96447.75
2022-12-29T06:40:16.080Z,96444.78
2022-12-29T06:43:03.208Z,96438.78
2022-12-29T06:45:41.792Z,96445.81
2022-12-29T06:48:08.760Z,96441.59
2022-12-29T06:50:35.291Z,96437.19
2022-12-29T06:53:02.368Z,96437.59
2022-12-29T06:55:29.226Z,96437.22
2022-12-29T06:57:57.231Z,96425.84
2022-12-29T07:00:24.842Z,96434.66
2022-12-29T07:02:51.659Z,96427.25
2022-12-29T07:05:18.571Z,96425.09
2022-12-29T07:07:45.068Z,96391.34
2022-12-29T07:10:11.623Z,96434.06
2022-12-29T07:12:38.126Z,96439.50
2022-12-29T07:15:04.845Z,96448.50
2022-12-29T07:17:31.311Z,96433.34
2022-12-29T07:19:57.727Z,96448.34
2022-12-29T07:22:24.214Z,96443.78
2022-12-29T07:24:50.718Z,96448.63
2022-12-29T07:27:17.192Z,96440.22
2022-12-29T07:29:43.658Z,96442.47
2022-12-29T07:32:10.122Z,96449.13
2022-12-29T07:34:36.668Z,96440.56
2022-12-29T07:37:03.107Z,96432.78
2022-12-29T07:39:29.530Z,96454.72
2022-12-29T07:42:01.080Z,96451.75
2022-12-29T07:44:37.726Z,96451.53
2022-12-29T07:47:27.283Z,96449.53
2022-12-29T07:49:54.177Z,96439.00
2022-12-29T07:52:20.631Z,96439.97
2022-12-29T07:54:47.184Z,96435.00
2022-12-29T07:57:13.637Z,96447.16
2022-12-29T07:59:40.115Z,96455.97
2022-12-29T08:02:06.820Z,96456.16
2022-12-29T08:04:33.361Z,96453.00
2022-12-29T08:07:00.979Z,96448.78
2022-12-29T08:09:27.503Z,96462.03
2022-12-29T08:11:55.285Z,96465.44
2022-12-29T08:14:21.955Z,96440.28
2022-12-29T08:16:48.407Z,96448.88
2022-12-29T08:19:14.915Z,96454.59
2022-12-29T08:21:41.757Z,96458.22
2022-12-29T08:24:09.332Z,96456.75
2022-12-29T08:26:35.783Z,96465.34
2022-12-29T08:29:02.162Z,96462.84
2022-12-29T08:31:28.772Z,96463.75
2022-12-29T08:33:55.320Z,96469.50
2022-12-29T08:36:22.034Z,96457.53
2022-12-29T08:38:48.494Z,96476.53
2022-12-29T08:41:14.868Z,96474.09
2022-12-29T08:43:41.366Z,96451.72
2022-12-29T08:46:08.075Z,96482.50
2022-12-29T08:48:34.652Z,96463.19
2022-12-29T08:51:01.369Z,96469.53
2022-12-29T08:53:27.907Z,96467.34
2022-12-29T08:56:04.644Z,96478.97
2022-12-29T08:58:39.542Z,96458.00
2022-12-29T09:01:07.824Z,96470.16
2022-12-29T09:06:21.063Z,96464.25
2022-12-29T09:08:47.698Z,96443.63
2022-12-29T09:11:25.327Z,96487.41
2022-12-29T09:13:52.631Z,96474.28
2022-12-29T09:16:21.560Z,96490.44
2022-12-29T09:18:48.146Z,96462.34
2022-12-29T09:21:14.775Z,96481.69
2022-12-29T09:23:41.585Z,96485.38
2022-12-29T09:26:08.900Z,96484.41
2022-12-29T09:28:35.591Z,96475.91
2022-12-29T09:31:02.515Z,96472.84
2022-12-29T09:33:29.116Z,96465.63
2022-12-29T09:35:56.695Z,96467.78
2022-12-29T09:38:23.765Z,96480.78
2022-12-29T09:40:52.842Z,96461.13
2022-12-29T09:43:53.731Z,96473.28
2022-12-29T09:46:29.664Z,96473.47
2022-12-29T09:49:16.959Z,96458.81
2022-12-29T09:51:48.625Z,96467.22
2022-12-29T09:54:25.447Z,96446.34
2022-12-29T09:56:53.896Z,96454.88
2022-12-29T09:59:25.989Z,96454.50
2022-12-29T10:02:02.604Z,96426.25
2022-12-29T10:04:29.993Z,96448.47
2022-12-29T10:07:34.185Z,96407.56
2022-12-29T10:10:12.934Z,96457.91
2022-12-29T10:12:42.434Z,96457.50
2022-12-29T10:15:19.749Z,96436.25
2022-12-29T10:18:13.934Z,96434.66
2022-12-29T10:21:14.949Z,96434.44
2022-12-29T10:23:49.836Z,96445.00
2022-12-29T10:26:19.988Z,96448.88
2022-12-29T10:29:06.806Z,96431.38
2022-12-29T10:31:36.037Z,96441.03
2022-12-29T10:34:15.430Z,96440.06
2022-12-29T10:36:48.374Z,96434.47
2022-12-29T10:39:23.816Z,96419.84
2022-12-29T10:42:23.567Z,96444.31
2022-12-29T10:44:50.678Z,96422.47
2022-12-29T10:47:26.309Z,96432.72
2022-12-29T10:49:53.714Z,96430.53
2022-12-29T10:52:21.848Z,96437.47
2022-12-29T10:55:03.683Z,96436.91
2022-12-29T10:57:36.279Z,96424.66
2022-12-29T11:00:14.430Z,96430.31
2022-12-29T11:03:02.822Z,96425.97
2022-12-29T11:05:39.417Z,96418.84
2022-12-29T11:08:12.998Z,96415.53
2022-12-29T11:10:42.056Z,96396.03
2022-12-29T11:13:25.329Z,96411.31
2022-12-29T11:33:04.185Z,96405.84
2022-12-29T11:35:37.028Z,96398.56
2022-12-29T11:38:17.858Z,96404.03
2022-12-29T11:40:44.419Z,96394.78
2022-12-29T11:43:25.536Z,96397.97
2022-12-29T11:45:53.917Z,96410.97
2022-12-29T11:48:22.132Z,96393.94
2022-12-29T11:50:55.859Z,96397.41
2022-12-29T11:53:26.023Z,96398.34
2022-12-29T11:56:01.733Z,96392.38
2022-12-29T11:58:33.660Z,96395.31
2022-12-29T12:01:14.724Z,96387.41
2022-12-29T12:03:48.898Z,96390.94
2022-12-29T12:06:22.409Z,96385.81
2022-12-29T12:08:59.652Z,96384.41
2022-12-29T12:11:37.131Z,96382.00
2022-12-29T12:14:18.286Z,96357.38
2022-12-29T12:17:17.148Z,96362.44
2022-12-29T12:20:06.578Z,96361.88
2022-12-29T12:22:41.100Z,96371.34
2022-12-29T12:25:24.449Z,96344.72
2022-12-29T12:28:00.384Z,96367.56
2022-12-29T12:30:31.350Z,96366.88
2022-12-29T12:33:15.467Z,96358.66
2022-12-29T12:36:16.239Z,96375.44
2022-12-29T12:38:42.727Z,96361.88
2022-12-29T12:41:16.735Z,96363.47
2022-12-29T12:43:50.436Z,96363.53
2022-12-29T12:46:39.000Z,96352.56
2022-12-29T12:49:26.134Z,96353.09
2022-12-29T12:52:17.201Z,96367.88
2022-12-29T12:55:05.590Z,96348.47
2022-12-29T12:57:55.451Z,96354.66
2022-12-29T13:00:24.353Z,96336.50
2022-12-29T13:03:11.936Z,96353.22
2022-12-29T13:05:38.477Z,96348.31
2022-12-29T13:08:34.565Z,96354.19
2022-12-29T13:11:11.559Z,96341.66
2022-12-29T13:13:54.710Z,96334.75
2022-12-29T13:16:43.082Z,96341.44
2022-12-29T13:19:31.415Z,96358.53
2022-12-29T13:22:10.727Z,96349.31
2022-12-29T13:24:45.397Z,96343.19
2022-12-29T13:27:20.112Z,96344.41
2022-12-29T13:30:09.339Z,96354.25
2022-12-29T13:32:48.130Z,96351.69
2022-12-29T13:35:33.198Z,96353.22
2022-12-29T13:38:05.494Z,96352.53
2022-12-29T13:40:40.096Z,96328.31
2022-12-29T13:43:07.978Z,96348.47
2022-12-29T13:45:36.124Z,96353.22
2022-12-29T13:48:18.086Z,96342.47
2022-12-29T13:50:53.376Z,96351.75
2022-12-29T13:53:28.969Z,96361.06
2022-12-29T13:56:11.187Z,96359.63
2022-12-29T13:58:46.887Z,96362.34
2022-12-29T14:01:29.763Z,96351.38
2022-12-29T14:03:59.153Z,96364.66
2022-12-29T14:06:28.321Z,96366.25
2022-12-29T14:08:58.157Z,96361.91
2022-12-29T14:11:32.287Z,96364.31
2022-12-29T14:13:59.263Z,96375.75
2022-12-29T14:16:31.724Z,96376.84
2022-12-29T14:19:26.638Z,96374.53
2022-12-29T14:22:03.351Z,96375.97
2022-12-29T14:24:35.830Z,96382.91
2022-12-29T14:27:22.452Z,96384.28
2022-12-29T14:29:52.713Z,96390.22
2022-12-29T14:32:25.245Z,96390.38
2022-12-29T14:35:22.013Z,96382.41
2022-12-29T14:37:48.831Z,96387.66
2022-12-29T14:40:19.979Z,96379.50
2022-12-29T14:42:48.252Z,96397.03
2022-12-29T14:45:14.722Z,96391.97
2022-12-29T14:47:42.938Z,96390.22
2022-12-29T14:50:22.633Z,96386.81
2022-12-29T14:53:02.563Z,96385.53
2022-12-29T14:56:09.707Z,96391.41
2022-12-29T14:58:57.377Z,96384.25
2022-12-29T15:01:31.414Z,96395.47
2022-12-29T15:04:02.349Z,96381.75
2022-12-29T15:06:30.909Z,96381.03
2022-12-29T15:09:26.561Z,96383.97
2022-12-29T15:11:57.453Z,96372.00
2022-12-29T15:14:37.252Z,96396.88
2022-12-29T15:17:22.961Z,96384.06
2022-12-29T15:19:49.468Z,96389.03
2022-12-29T15:22:16.150Z,96385.22
2022-12-29T15:24:43.929Z,96381.41
2022-12-29T15:27:20.784Z,96383.69
2022-12-29T15:29:48.309Z,96378.63
2022-12-29T15:32:29.280Z,96377.28
2022-12-29T15:35:00.809Z,96386.94
2022-12-29T15:37:36.367Z,96390.47
2022-12-29T15:40:03.510Z,96393.06
2022-12-29T15:42:51.378Z,96393.88
2022-12-29T15:45:18.036Z,96397.19
2022-12-29T15:47:49.711Z,96401.81
2022-12-29T15:50:27.036Z,96395.03
2022-12-29T15:52:53.571Z,96388.53
2022-12-29T15:55:22.885Z,96394.63
2022-12-29T15:57:49.469Z,96384.88
2022-12-29T16:00:26.608Z,96391.69
2022-12-29T16:02:55.525Z,96375.66
2022-12-29T16:05:22.320Z,96402.72
2022-12-29T16:08:30.773Z,96396.72
2022-12-29T16:10:58.810Z,96385.00
2022-12-29T16:13:41.977Z,96397.19
2022-12-29T16:16:21.759Z,96408.41
2022-12-29T16:18:53.560Z,96411.56
2022-12-29T16:21:27.542Z,96401.00
2022-12-29T16:23:58.029Z,96411.09
2022-12-29T16:26:25.430Z,96410.75
2022-12-29T16:28:56.881Z,96417.38
2022-12-29T16:31:34.466Z,96409.19
2022-12-29T16:34:20.919Z,96413.28
2022-12-29T16:36:59.873Z,96414.88
2022-12-29T16:39:40.590Z,96416.25
2022-12-29T16:42:50.550Z,96412.13
2022-12-29T16:45:21.150Z,96377.94
2022-12-29T16:47:49.547Z,96404.44
2022-12-29T16:50:28.289Z,96413.88
2022-12-29T16:52:55.227Z,96421.38
2022-12-29T16:55:21.767Z,96418.75
2022-12-29T16:57:52.260Z,96413.97
2022-12-29T17:00:22.061Z,96416.16
2022-12-29T17:02:51.607Z,96413.97
2022-12-29T17:05:19.059Z,96410.09
2022-12-29T17:07:46.075Z,96415.13
2022-12-29T17:10:14.872Z,96404.97
2022-12-29T17:12:43.772Z,96414.22
2022-12-29T17:15:25.672Z,96417.72
2022-12-29T17:17:55.762Z,96422.50
2022-12-29T17:20:29.165Z,96423.97
2022-12-29T17:22:56.108Z,96416.94
2022-12-29T17:25:33.429Z,96414.09
2022-12-29T17:28:03.918Z,96413.50
2022-12-29T17:30:34.561Z,96413.84
2022-12-29T17:33:05.361Z,96408.72
2022-12-29T17:35:31.899Z,96410.66
2022-12-29T17:37:58.342Z,96397.00
2022-12-29T17:40:28.283Z,96384.22
2022-12-29T17:42:57.296Z,96404.75
2022-12-29T17:45:27.980Z,96414.13
2022-12-29T17:47:54.689Z,96411.53
2022-12-29T17:50:24.853Z,96409.72
2022-12-29T17:53:00.134Z,96421.31
2022-12-29T17:55:32.750Z,96398.69
2022-12-29T17:58:16.849Z,96422.09
2022-12-29T18:00:43.718Z,96405.13
2022-12-29T18:03:28.203Z,96417.41
2022-12-29T18:05:55.717Z,96419.69
2022-12-29T18:08:22.282Z,96427.31
2022-12-29T18:10:50.958Z,96405.81
2022-12-29T18:13:23.158Z,96409.97
2022-12-29T18:15:50.494Z,96415.69
2022-12-29T18:18:20.428Z,96435.78
2022-12-29T18:20:49.224Z,96439.19
2022-12-29T18:23:20.464Z,96443.63
2022-12-29T18:26:02.716Z,96441.47
2022-12-29T18:28:29.557Z,96437.28
2022-12-29T18:30:58.098Z,96448.97
2022-12-29T18:33:26.843Z,96456.59
2022-12-29T18:36:02.169Z,96457.16
2022-12-29T18:38:29.840Z,96457.50
2022-12-29T18:40:57.505Z,96457.63
2022-12-29T18:43:24.463Z,96451.03
2022-12-29T18:45:51.031Z,96451.69
2022-12-29T18:48:18.879Z,96459.19
2022-12-29T18:50:46.699Z,96446.03
2022-12-29T18:53:32.816Z,96462.31
2022-12-29T18:55:59.371Z,96466.16
2022-12-29T18:58:32.253Z,96469.44
2022-12-29T19:01:00.881Z,96464.31
2022-12-29T19:03:27.637Z,96459.56
2022-12-29T19:05:54.382Z,96466.13
2022-12-29T19:08:20.971Z,96457.72
2022-12-29T19:10:47.462Z,96477.06
2022-12-29T19:15:07.106Z,96474.91
2022-12-29T19:17:34.289Z,96473.06
2022-12-29T19:20:04.782Z,96465.47
2022-12-29T19:22:31.366Z,96454.47
2022-12-29T19:25:00.049Z,96470.00
2022-12-29T19:27:27.855Z,96465.38
2022-12-29T19:29:54.362Z,96469.91
2022-12-29T19:32:20.914Z,96464.13
2022-12-29T19:34:48.813Z,96479.00
2022-12-29T19:37:15.381Z,96479.69
2022-12-29T19:39:41.829Z,96477.63
2022-12-29T19:42:08.349Z,96478.88
2022-12-29T19:44:34.793Z,96486.84
2022-12-29T19:47:02.093Z,96488.66
2022-12-29T19:49:29.705Z,96495.56
2022-12-29T19:51:56.226Z,96490.59
2022-12-29T19:54:22.728Z,96495.56
2022-12-29T19:56:49.472Z,96498.78
2022-12-29T19:59:16.081Z,96501.03
2022-12-29T20:01:42.747Z,96495.69
2022-12-29T20:04:09.371Z,96500.34
2022-12-29T20:06:35.948Z,96498.41
2022-12-29T20:09:02.988Z,96498.28
2022-12-29T20:11:29.720Z,96495.41
2022-12-29T20:13:56.280Z,96495.88
2022-12-29T20:16:22.884Z,96507.84
2022-12-29T20:18:49.542Z,96503.97
2022-12-29T20:21:22.641Z,96503.09
2022-12-29T20:23:50.352Z,96495.22
2022-12-29T20:26:23.901Z,96506.97
2022-12-29T20:28:51.297Z,96510.56
2022-12-29T20:31:19.849Z,96511.16
2022-12-29T20:33:47.014Z,96507.72
2022-12-29T20:36:17.878Z,96512.19
2022-12-29T20:38:45.816Z,96501.84
2022-12-29T20:41:13.962Z,96494.34
2022-12-29T20:43:41.474Z,96506.34
2022-12-29T20:46:08.870Z,96487.38
2022-12-29T20:48:35.633Z,96501.72
2022-12-29T20:51:03.179Z,96504.00
2022-12-29T20:53:31.552Z,96491.16
2022-12-29T20:56:07.656Z,96488.66
2022-12-29T20:58:47.153Z,96495.38
2022-12-29T21:01:24.183Z,96498.78
2022-12-29T21:03:50.773Z,96492.19
2022-12-29T21:06:17.230Z,96490.59
2022-12-29T21:08:43.771Z,96488.31
2022-12-29T21:11:10.235Z,96500.69
2022-12-29T21:13:36.961Z,96500.13
2022-12-29T21:16:06.733Z,96498.16
2022-12-29T21:18:34.617Z,96506.00
2022-12-29T21:21:04.126Z,96503.88
2022-12-29T21:23:30.706Z,96503.88
2022-12-29T21:25:57.492Z,96506.25
2022-12-29T21:28:24.650Z,96496.50
2022-12-29T21:30:51.673Z,96488.63
2022-12-29T21:33:19.956Z,96502.81
2022-12-29T21:35:47.375Z,96500.66
2022-12-29T21:38:14.398Z,96514.09
2022-12-29T21:40:41.125Z,96485.88
2022-12-29T21:43:08.099Z,96509.22
2022-12-29T21:45:34.910Z,96493.84
2022-12-29T21:48:24.219Z,96512.94
2022-12-29T21:51:31.446Z,96521.25
2022-12-29T21:54:19.164Z,96524.06
2022-12-29T21:56:47.512Z,96529.97
2022-12-29T21:59:34.388Z,96516.50
2022-12-29T22:02:20.955Z,96516.91
2022-12-29T22:05:06.168Z,96534.50
2022-12-29T22:07:51.469Z,96535.72
2022-12-29T22:10:36.533Z,96553.22
2022-12-29T22:13:03.434Z,96542.88
2022-12-29T22:15:33.388Z,96549.09
2022-12-29T22:18:01.957Z,96557.06
2022-12-29T22:20:34.013Z,96560.34
2022-12-29T22:23:00.973Z,96549.34
2022-12-29T22:25:27.761Z,96572.69
2022-12-29T22:27:59.319Z,96555.44
2022-12-29T22:30:27.636Z,96580.19
2022-12-29T22:32:54.242Z,96582.13
2022-12-29T22:35:20.780Z,96586.09
2022-12-29T22:37:47.227Z,96589.41
2022-12-29T22:40:13.860Z,96593.13
2022-12-29T22:42:40.471Z,96594.56
2022-12-29T22:45:07.919Z,96584.06
2022-12-29T22:47:34.924Z,96601.94
2022-12-29T22:50:01.608Z,96603.25
2022-12-29T22:52:28.329Z,96615.00
2022-12-29T22:54:54.993Z,96609.94
2022-12-29T22:57:21.538Z,96621.97
2022-12-29T22:59:47.971Z,96630.53
2022-12-29T23:18:02.478Z,96656.25
2022-12-29T23:20:29.005Z,96659.41
2022-12-29T23:22:55.461Z,96664.78
2022-12-29T23:25:21.996Z,96665.34
2022-12-29T23:27:48.529Z,96671.31
2022-12-29T23:30:15.048Z,96674.38
2022-12-29T23:32:41.530Z,96687.63
2022-12-29T23:35:08.160Z,96688.06
2022-12-29T23:37:34.751Z,96684.88
2022-12-29T23:40:01.198Z,96677.63
2022-12-29T23:42:27.769Z,96666.78
2022-12-29T23:44:54.179Z,96677.34
2022-12-29T23:47:20.672Z,96674.81
2022-12-29T23:49:47.117Z,96675.94
2022-12-29T23:52:13.685Z,96680.06
2022-12-29T23:54:40.490Z,96683.28
2022-12-29T23:57:07.000Z,96687.88
2022-12-29T23:59:33.428Z,96687.53
